Time;durP1;ratioP1;P1;durP2;ratioP2;P2;SDS_P1;SDS_P2;PMS_P1;PMS_P2;Temp;Humidity;BMP_temperature;BMP_pressure;BME280_temperature;BME280_humidity;BME280_pressure;Samples;Min_cycle;Max_cycle;Signal;HPM_P1;HPM_P2
2021/08/08 00:01:58;;;;;;;1.15;1.08;;;17.10;99.90;;;;;;5033324;28;20214;-70
2021/08/08 00:04:25;;;;;;;0.95;0.90;;;17.10;99.90;;;;;;5033334;28;20204;-70
2021/08/08 00:06:53;;;;;;;0.90;0.90;;;17.10;99.90;;;;;;5034078;28;20200;-70
2021/08/08 00:09:20;;;;;;;0.95;0.90;;;17.10;99.90;;;;;;5037264;28;20232;-69
2021/08/08 00:11:47;;;;;;;1.13;1.13;;;17.10;99.90;;;;;;5037151;28;20214;-70
2021/08/08 00:14:14;;;;;;;1.13;1.10;;;17.10;99.90;;;;;;5037183;28;20214;-70
2021/08/08 00:16:40;;;;;;;1.10;1.10;;;17.10;99.90;;;;;;5036606;28;20219;-70
2021/08/08 00:19:07;;;;;;;1.30;1.15;;;17.10;99.90;;;;;;5037107;28;20310;-70
2021/08/08 00:21:34;;;;;;;0.90;0.88;;;17.20;99.90;;;;;;5037086;28;20208;-70
2021/08/08 00:24:02;;;;;;;1.27;1.10;;;17.10;99.90;;;;;;5037046;28;20200;-70
2021/08/08 00:26:29;;;;;;;1.00;0.98;;;17.20;99.90;;;;;;5036791;28;20243;-70
2021/08/08 00:28:56;;;;;;;1.00;0.90;;;17.20;99.90;;;;;;5036771;28;20641;-70
2021/08/08 00:31:24;;;;;;;1.00;1.00;;;17.20;99.90;;;;;;5036837;28;20295;-70
2021/08/08 00:33:51;;;;;;;1.25;1.15;;;17.20;99.90;;;;;;5036830;28;20204;-70
2021/08/08 00:36:18;;;;;;;1.20;1.10;;;17.20;99.90;;;;;;5036870;28;20203;-70
2021/08/08 00:38:45;;;;;;;0.80;0.80;;;17.20;99.90;;;;;;5036450;28;20761;-70
2021/08/08 00:41:13;;;;;;;1.92;1.10;;;17.20;99.90;;;;;;5036481;28;20295;-70
2021/08/08 00:43:40;;;;;;;1.73;1.30;;;17.20;99.90;;;;;;5036585;28;20210;-70
2021/08/08 00:46:07;;;;;;;1.08;1.00;;;17.20;99.90;;;;;;5036243;28;20680;-70
2021/08/08 00:48:34;;;;;;;0.95;0.95;;;17.20;99.90;;;;;;5036462;28;20224;-70
2021/08/08 00:51:01;;;;;;;1.00;1.00;;;17.10;99.90;;;;;;5036216;28;20228;-70
2021/08/08 00:53:29;;;;;;;1.52;1.30;;;17.10;99.90;;;;;;5036549;28;20566;-70
2021/08/08 00:55:56;;;;;;;1.90;1.27;;;17.10;99.90;;;;;;5036155;28;20230;-70
2021/08/08 00:58:26;;;;;;;1.10;1.05;;;17.10;99.90;;;;;;5036242;28;20311;-70
2021/08/08 01:00:56;;;;;;;0.88;0.88;;;17.10;99.90;;;;;;5036184;28;20293;-70
2021/08/08 01:03:25;;;;;;;0.80;0.80;;;17.10;99.90;;;;;;5036369;28;20561;-70
2021/08/08 01:05:57;;;;;;;1.08;0.98;;;17.10;99.90;;;;;;5036008;28;20200;-70
2021/08/08 01:08:27;;;;;;;0.90;0.90;;;17.10;99.90;;;;;;5035928;28;20235;-70
2021/08/08 01:10:55;;;;;;;1.55;1.00;;;17.10;99.90;;;;;;5035842;28;20227;-70
2021/08/08 01:13:24;;;;;;;0.70;0.70;;;17.10;99.90;;;;;;5036123;28;20200;-70
2021/08/08 01:15:51;;;;;;;0.80;0.80;;;17.20;99.90;;;;;;5035768;28;20302;-71
2021/08/08 01:18:19;;;;;;;1.10;1.10;;;17.20;99.90;;;;;;5035376;28;20314;-70
2021/08/08 01:20:48;;;;;;;0.80;0.80;;;17.20;99.90;;;;;;5036064;28;20214;-70
2021/08/08 01:23:15;;;;;;;0.90;0.90;;;17.20;99.90;;;;;;5035848;28;20214;-70
2021/08/08 01:25:45;;;;;;;0.85;0.82;;;17.20;99.90;;;;;;5035747;28;20200;-70
2021/08/08 01:28:13;;;;;;;0.70;0.70;;;17.10;99.90;;;;;;5035770;28;20232;-70
2021/08/08 01:30:40;;;;;;;1.02;1.02;;;17.10;99.90;;;;;;5036234;28;20238;-70
2021/08/08 01:33:08;;;;;;;0.93;0.93;;;17.10;99.90;;;;;;5035742;28;20299;-70
2021/08/08 01:35:35;;;;;;;0.70;0.70;;;17.10;99.90;;;;;;5035470;28;20208;-70
2021/08/08 01:38:03;;;;;;;0.75;0.75;;;17.10;99.90;;;;;;5035575;28;20321;-70
2021/08/08 01:40:36;;;;;;;0.98;0.95;;;17.10;99.90;;;;;;5035620;28;20626;-70
2021/08/08 01:43:08;;;;;;;1.00;1.00;;;17.10;99.90;;;;;;5035631;28;20218;-70
2021/08/08 01:45:38;;;;;;;0.80;0.80;;;17.10;99.90;;;;;;5035333;28;20212;-69
2021/08/08 01:48:08;;;;;;;0.82;0.82;;;17.10;99.90;;;;;;5035375;28;20593;-70
2021/08/08 01:50:36;;;;;;;1.60;0.93;;;17.10;99.90;;;;;;5035401;28;20222;-70
2021/08/08 01:53:03;;;;;;;0.82;0.73;;;17.20;99.90;;;;;;5035380;28;20626;-70
2021/08/08 01:55:30;;;;;;;0.80;0.80;;;17.20;99.90;;;;;;5035090;28;20317;-70
2021/08/08 01:57:59;;;;;;;0.88;0.88;;;17.30;99.90;;;;;;5035084;28;20207;-70
2021/08/08 02:00:27;;;;;;;0.90;0.70;;;17.30;99.90;;;;;;5035334;28;20200;-70
2021/08/08 02:02:56;;;;;;;0.85;0.85;;;17.30;99.90;;;;;;5035122;28;20211;-69
2021/08/08 02:05:24;;;;;;;0.95;0.90;;;17.30;99.90;;;;;;5034971;28;20208;-70
2021/08/08 02:07:51;;;;;;;0.80;0.80;;;17.30;99.90;;;;;;5035039;28;20204;-70
2021/08/08 02:10:18;;;;;;;0.70;0.70;;;17.30;99.90;;;;;;5035079;28;20224;-70
2021/08/08 02:12:46;;;;;;;1.10;1.10;;;17.20;99.90;;;;;;5034997;28;20210;-70
2021/08/08 02:15:14;;;;;;;0.90;0.90;;;17.10;99.90;;;;;;5034693;28;20291;-70
2021/08/08 02:17:43;;;;;;;1.10;1.00;;;17.10;99.90;;;;;;5034505;28;20307;-70
2021/08/08 02:20:12;;;;;;;0.88;0.85;;;17.10;99.90;;;;;;5034936;28;20297;-70
2021/08/08 02:22:39;;;;;;;1.45;1.15;;;17.00;99.90;;;;;;5034827;28;20206;-70
2021/08/08 02:25:07;;;;;;;0.70;0.70;;;17.00;99.90;;;;;;5034460;28;20200;-70
2021/08/08 02:27:34;;;;;;;0.95;0.95;;;16.80;99.90;;;;;;5034564;28;20633;-70
2021/08/08 02:30:01;;;;;;;0.80;0.80;;;16.70;99.90;;;;;;5033618;28;20261;-70
2021/08/08 02:32:27;;;;;;;1.10;1.10;;;16.60;99.90;;;;;;5034396;28;20302;-70
2021/08/08 02:34:56;;;;;;;1.10;1.10;;;16.60;99.90;;;;;;5034424;28;20204;-70
2021/08/08 02:37:22;;;;;;;0.85;0.85;;;16.60;99.90;;;;;;5034597;28;20291;-70
2021/08/08 02:39:49;;;;;;;1.70;1.10;;;16.70;99.90;;;;;;5034496;28;20224;-70
2021/08/08 02:42:16;;;;;;;0.82;0.82;;;16.70;99.90;;;;;;5034414;28;20573;-71
2021/08/08 02:44:43;;;;;;;0.73;0.73;;;16.70;99.90;;;;;;5034411;28;20203;-70
2021/08/08 02:47:10;;;;;;;0.95;0.90;;;16.70;99.90;;;;;;5034398;28;20204;-70
2021/08/08 02:49:36;;;;;;;1.10;1.00;;;16.80;99.90;;;;;;5034378;28;20323;-70
2021/08/08 02:52:05;;;;;;;2.25;0.98;;;16.80;99.90;;;;;;5034133;28;20206;-70
2021/08/08 02:54:32;;;;;;;0.90;0.90;;;16.90;99.90;;;;;;5034213;28;20569;-70
2021/08/08 02:56:59;;;;;;;0.80;0.80;;;16.80;99.90;;;;;;5033911;28;20203;-70
2021/08/08 02:59:25;;;;;;;0.90;0.73;;;16.80;99.90;;;;;;5034141;28;20314;-70
2021/08/08 03:01:52;;;;;;;1.02;0.90;;;16.80;99.90;;;;;;5034101;28;20196;-70
2021/08/08 03:04:19;;;;;;;1.60;1.00;;;16.80;99.90;;;;;;5034084;28;20312;-70
2021/08/08 03:06:46;;;;;;;1.23;1.00;;;16.70;99.90;;;;;;5033851;28;20203;-70
2021/08/08 03:09:15;;;;;;;1.10;1.00;;;16.60;99.90;;;;;;5033744;28;20224;-70
2021/08/08 03:11:45;;;;;;;1.00;1.00;;;16.50;99.90;;;;;;5033815;28;20234;-70
2021/08/08 03:14:13;;;;;;;0.93;0.93;;;16.50;99.90;;;;;;5034006;28;20306;-70
2021/08/08 03:16:40;;;;;;;1.02;1.02;;;16.50;99.90;;;;;;5033516;28;20204;-70
2021/08/08 03:19:07;;;;;;;1.17;1.08;;;16.50;99.90;;;;;;5033745;28;20250;-70
2021/08/08 03:21:33;;;;;;;1.20;1.10;;;16.40;99.90;;;;;;5033822;28;20206;-70
2021/08/08 03:24:00;;;;;;;1.65;1.05;;;16.30;99.90;;;;;;5033726;28;20207;-70
2021/08/08 03:26:29;;;;;;;1.40;1.30;;;16.30;99.90;;;;;;5033327;28;20208;-70
2021/08/08 03:28:55;;;;;;;2.00;1.10;;;16.30;99.90;;;;;;5033722;28;20224;-70
2021/08/08 03:31:22;;;;;;;1.90;1.48;;;16.30;99.90;;;;;;5033627;28;20234;-70
2021/08/08 03:33:49;;;;;;;1.67;1.10;;;16.30;99.90;;;;;;5033669;28;20570;-70
2021/08/08 03:36:16;;;;;;;1.30;1.20;;;16.30;99.90;;;;;;5033302;28;20214;-70
2021/08/08 03:38:43;;;;;;;1.00;1.00;;;16.30;99.90;;;;;;5033470;28;20233;-70
2021/08/08 03:41:10;;;;;;;1.55;1.30;;;16.30;99.90;;;;;;5033425;28;20200;-70
2021/08/08 03:43:38;;;;;;;1.33;1.23;;;16.40;99.90;;;;;;5033572;28;20288;-70
2021/08/08 03:46:05;;;;;;;7.47;1.23;;;16.30;99.90;;;;;;5033321;28;20208;-70
2021/08/08 03:48:32;;;;;;;1.35;1.25;;;16.30;99.90;;;;;;5033330;28;20233;-69
2021/08/08 03:50:58;;;;;;;1.17;1.15;;;16.30;99.90;;;;;;5033483;28;20228;-70
2021/08/08 03:53:25;;;;;;;3.80;1.30;;;16.30;99.90;;;;;;5033360;28;20548;-70
2021/08/08 03:55:52;;;;;;;0.90;0.90;;;16.30;99.90;;;;;;5033036;28;20689;-70
2021/08/08 03:58:19;;;;;;;2.58;1.25;;;16.30;99.90;;;;;;5033107;28;20317;-70
2021/08/08 04:00:47;;;;;;;1.00;1.00;;;16.30;99.90;;;;;;5033403;28;20289;-70
2021/08/08 04:03:14;;;;;;;1.10;1.10;;;16.20;99.90;;;;;;5033370;28;20297;-70
2021/08/08 04:05:41;;;;;;;3.30;1.27;;;16.20;99.90;;;;;;5033067;28;20620;-70
2021/08/08 04:08:08;;;;;;;1.40;1.30;;;16.10;99.90;;;;;;5033181;28;20220;-69
2021/08/08 04:10:35;;;;;;;1.23;1.13;;;16.00;99.90;;;;;;5033205;28;20234;-70
2021/08/08 04:13:01;;;;;;;1.20;1.08;;;16.00;99.90;;;;;;5033288;28;20207;-70
2021/08/08 04:15:28;;;;;;;1.30;1.20;;;15.90;99.90;;;;;;5032826;28;20664;-70
2021/08/08 04:17:56;;;;;;;1.40;1.30;;;15.90;99.90;;;;;;5033202;28;20210;-70
2021/08/08 04:20:23;;;;;;;1.80;1.15;;;15.90;99.90;;;;;;5033220;28;20199;-70
2021/08/08 04:22:50;;;;;;;2.35;1.20;;;15.80;99.90;;;;;;5032979;28;20294;-70
2021/08/08 04:25:17;;;;;;;1.20;1.10;;;15.70;99.90;;;;;;5033047;28;20230;-70
2021/08/08 04:27:44;;;;;;;1.70;1.10;;;15.70;99.90;;;;;;5033080;28;20298;-70
2021/08/08 04:30:12;;;;;;;1.10;1.00;;;15.70;99.90;;;;;;5033117;28;20204;-70
2021/08/08 04:32:38;;;;;;;1.58;1.20;;;15.60;99.90;;;;;;5033166;28;20230;-70
2021/08/08 04:35:07;;;;;;;0.90;0.90;;;15.60;99.90;;;;;;5032929;28;20203;-70
2021/08/08 04:37:34;;;;;;;1.48;1.10;;;15.70;99.90;;;;;;5032958;28;20580;-70
2021/08/08 04:40:01;;;;;;;1.15;1.15;;;15.70;99.90;;;;;;5033042;28;20231;-70
2021/08/08 04:42:28;;;;;;;1.50;1.40;;;15.70;99.90;;;;;;5032883;28;20704;-70
2021/08/08 04:44:54;;;;;;;1.17;1.17;;;15.70;99.90;;;;;;5032811;28;20569;-70
2021/08/08 04:47:21;;;;;;;1.15;1.10;;;15.70;99.90;;;;;;5032885;28;20212;-70
2021/08/08 04:49:48;;;;;;;1.25;1.15;;;15.70;99.90;;;;;;5032625;28;20785;-70
2021/08/08 04:52:16;;;;;;;1.10;1.10;;;15.80;99.90;;;;;;5032681;28;20224;-70
2021/08/08 04:54:43;;;;;;;1.25;1.15;;;15.70;99.90;;;;;;5036345;28;20210;-71
2021/08/08 04:57:10;;;;;;;0.95;0.93;;;15.70;99.90;;;;;;5036213;28;20665;-70
2021/08/08 04:59:37;;;;;;;1.20;1.20;;;15.70;99.90;;;;;;5036373;28;20249;-70
2021/08/08 05:02:04;;;;;;;1.85;1.40;;;15.80;99.90;;;;;;5036368;28;20202;-70
2021/08/08 05:04:31;;;;;;;1.20;1.20;;;15.80;99.90;;;;;;5036350;28;20218;-70
2021/08/08 05:06:58;;;;;;;1.55;1.25;;;15.80;99.90;;;;;;5036144;28;20229;-70
2021/08/08 05:09:26;;;;;;;1.30;1.20;;;15.90;99.90;;;;;;5035949;28;20222;-70
2021/08/08 05:11:53;;;;;;;1.33;1.23;;;15.90;99.90;;;;;;5036119;28;20238;-70
2021/08/08 05:14:20;;;;;;;1.00;1.00;;;15.90;99.90;;;;;;5036144;28;20294;-70
2021/08/08 05:16:47;;;;;;;1.25;1.15;;;15.90;99.90;;;;;;5035611;28;20250;-70
2021/08/08 05:19:15;;;;;;;1.52;1.20;;;15.90;99.90;;;;;;5035767;28;20257;-70
2021/08/08 05:21:41;;;;;;;0.70;0.70;;;16.00;99.90;;;;;;5035862;28;20749;-70
2021/08/08 05:24:08;;;;;;;1.10;1.00;;;16.10;99.90;;;;;;5035962;28;20291;-70
2021/08/08 05:26:36;;;;;;;0.90;0.90;;;16.10;99.90;;;;;;5035744;28;20297;-70
2021/08/08 05:29:04;;;;;;;1.00;1.00;;;16.20;99.90;;;;;;5035583;28;20234;-70
2021/08/08 05:31:31;;;;;;;1.10;1.00;;;16.30;99.90;;;;;;5036439;28;20232;-70
2021/08/08 05:33:57;;;;;;;0.90;0.90;;;16.30;99.90;;;;;;5035608;28;20669;-70
2021/08/08 05:36:24;;;;;;;1.10;1.10;;;16.40;99.90;;;;;;5035554;28;20245;-70
2021/08/08 05:38:51;;;;;;;1.00;1.00;;;16.40;99.90;;;;;;5035629;28;20223;-70
2021/08/08 05:41:18;;;;;;;0.70;0.70;;;16.50;99.90;;;;;;5035724;28;20211;-70
2021/08/08 05:43:46;;;;;;;1.27;0.90;;;16.50;99.90;;;;;;5035575;28;20290;-70
2021/08/08 05:46:13;;;;;;;1.10;1.10;;;16.60;99.90;;;;;;5035482;28;20203;-69
2021/08/08 05:48:39;;;;;;;0.80;0.80;;;16.60;99.90;;;;;;5035241;28;20238;-70
2021/08/08 05:51:06;;;;;;;0.80;0.80;;;16.60;99.90;;;;;;5035163;28;20219;-70
2021/08/08 05:53:33;;;;;;;1.05;0.95;;;16.60;99.90;;;;;;5035427;28;20203;-70
2021/08/08 05:56:00;;;;;;;1.23;0.80;;;16.60;99.90;;;;;;5034952;28;20271;-70
2021/08/08 05:58:27;;;;;;;1.02;0.88;;;16.60;99.90;;;;;;5035345;28;20319;-69
2021/08/08 06:00:55;;;;;;;1.00;1.00;;;16.60;99.90;;;;;;5035282;28;20205;-70
2021/08/08 06:03:22;;;;;;;1.00;1.00;;;16.60;99.90;;;;;;5035178;28;20212;-70
2021/08/08 06:05:49;;;;;;;1.02;0.90;;;16.60;99.90;;;;;;5034766;28;20700;-70
2021/08/08 06:08:15;;;;;;;1.38;0.90;;;16.60;99.90;;;;;;5034995;28;20259;-69
2021/08/08 06:10:43;;;;;;;1.02;1.02;;;16.60;99.90;;;;;;5035004;28;20207;-70
2021/08/08 06:13:10;;;;;;;0.85;0.85;;;16.60;99.90;;;;;;5034753;28;20208;-69
2021/08/08 06:15:37;;;;;;;1.38;0.88;;;16.60;99.90;;;;;;5034654;28;20207;-71
2021/08/08 06:18:05;;;;;;;1.30;1.00;;;16.70;99.90;;;;;;5034910;28;20593;-70
2021/08/08 06:20:32;;;;;;;1.60;1.20;;;16.80;99.90;;;;;;5034993;28;20305;-70
2021/08/08 06:22:59;;;;;;;1.40;1.15;;;16.80;99.90;;;;;;5034899;28;20654;-70
2021/08/08 06:25:25;;;;;;;1.20;1.10;;;16.80;99.90;;;;;;5034550;28;20294;-69
2021/08/08 06:27:52;;;;;;;1.45;1.00;;;16.90;99.90;;;;;;5034485;28;20696;-70
2021/08/08 06:30:19;;;;;;;0.93;0.93;;;16.90;99.90;;;;;;5034815;28;20235;-70
2021/08/08 06:32:46;;;;;;;1.05;1.05;;;17.00;99.90;;;;;;5034468;28;20311;-70
2021/08/08 06:35:14;;;;;;;1.10;1.10;;;17.00;99.90;;;;;;5034644;28;20655;-70
2021/08/08 06:37:43;;;;;;;1.13;1.10;;;17.00;99.90;;;;;;5034497;28;20692;-70
2021/08/08 06:40:11;;;;;;;1.00;1.00;;;17.10;99.90;;;;;;5034956;28;20208;-70
2021/08/08 06:42:38;;;;;;;0.98;0.98;;;17.20;99.90;;;;;;5034505;28;20200;-70
2021/08/08 06:45:06;;;;;;;1.35;1.00;;;17.20;99.90;;;;;;5034272;28;20635;-70
2021/08/08 06:47:33;;;;;;;0.90;0.90;;;17.20;99.90;;;;;;5034389;28;20295;-70
2021/08/08 06:50:00;;;;;;;1.30;1.20;;;17.20;99.90;;;;;;5034356;28;20315;-70
2021/08/08 06:52:28;;;;;;;1.00;1.00;;;17.30;99.90;;;;;;5034188;28;20224;-71
2021/08/08 06:54:55;;;;;;;0.90;0.90;;;17.30;99.90;;;;;;5034133;28;20204;-71
2021/08/08 06:57:26;;;;;;;1.15;1.05;;;17.30;99.90;;;;;;5034222;28;20214;-70
2021/08/08 06:59:53;;;;;;;1.15;1.10;;;17.30;99.90;;;;;;5034171;28;20339;-70
2021/08/08 07:02:20;;;;;;;1.45;1.35;;;17.40;99.90;;;;;;5034123;28;20292;-70
2021/08/08 07:04:47;;;;;;;1.50;1.00;;;17.40;99.90;;;;;;5033890;28;20571;-71
2021/08/08 07:07:15;;;;;;;1.08;1.08;;;17.40;99.90;;;;;;5034044;28;20207;-70
2021/08/08 07:09:43;;;;;;;1.08;1.08;;;17.50;99.90;;;;;;5034108;28;20220;-70
2021/08/08 07:12:10;;;;;;;1.10;1.10;;;17.50;99.90;;;;;;5033904;28;20231;-70
2021/08/08 07:14:37;;;;;;;1.00;0.90;;;17.60;99.90;;;;;;5033801;28;20298;-70
2021/08/08 07:17:04;;;;;;;1.20;1.10;;;17.60;99.90;;;;;;5033018;28;20234;-70
2021/08/08 07:19:31;;;;;;;1.10;1.00;;;17.60;99.90;;;;;;5033768;28;20586;-70
2021/08/08 07:21:58;;;;;;;1.10;1.10;;;17.70;99.90;;;;;;5033828;28;20291;-70
2021/08/08 07:24:28;;;;;;;0.88;0.88;;;17.70;99.90;;;;;;5033743;28;20211;-70
2021/08/08 07:26:57;;;;;;;1.40;1.30;;;17.80;99.90;;;;;;5033499;28;20294;-70
2021/08/08 07:29:24;;;;;;;1.30;1.10;;;17.90;99.90;;;;;;5033685;28;20224;-70
2021/08/08 07:31:50;;;;;;;1.20;1.20;;;18.00;99.90;;;;;;5033568;28;20310;-70
2021/08/08 07:34:17;;;;;;;1.35;1.25;;;18.00;99.90;;;;;;5033628;28;20200;-70
2021/08/08 07:36:44;;;;;;;1.20;1.10;;;18.00;99.90;;;;;;5033208;28;20208;-70
2021/08/08 07:39:11;;;;;;;1.40;1.30;;;18.10;99.90;;;;;;5033606;28;20227;-71
2021/08/08 07:41:38;;;;;;;1.25;1.15;;;18.20;99.90;;;;;;5033580;28;20200;-71
2021/08/08 07:44:06;;;;;;;1.63;1.52;;;18.10;99.90;;;;;;5033558;28;20204;-70
2021/08/08 07:46:33;;;;;;;1.33;1.23;;;18.20;99.90;;;;;;5033130;28;20214;-71
2021/08/08 07:49:00;;;;;;;1.02;1.02;;;18.30;99.90;;;;;;5033494;28;20224;-70
2021/08/08 07:51:27;;;;;;;1.63;1.30;;;18.40;99.90;;;;;;5033243;28;20310;-71
2021/08/08 07:53:54;;;;;;;1.42;1.25;;;18.50;99.90;;;;;;5033253;28;20207;-70
2021/08/08 07:56:20;;;;;;;1.15;1.05;;;18.50;99.90;;;;;;5033285;28;20304;-70
2021/08/08 07:58:47;;;;;;;1.25;1.17;;;18.70;99.90;;;;;;5033353;28;20316;-70
2021/08/08 08:01:15;;;;;;;1.13;1.03;;;18.80;99.90;;;;;;5033344;28;20208;-70
2021/08/08 08:03:42;;;;;;;0.90;0.90;;;19.00;99.90;;;;;;5033144;28;20542;-71
2021/08/08 08:06:09;;;;;;;1.80;1.43;;;19.10;99.90;;;;;;5033219;28;20479;-70
2021/08/08 08:08:36;;;;;;;1.20;1.10;;;19.20;99.90;;;;;;5033256;28;20478;-71
2021/08/08 08:11:03;;;;;;;1.20;1.10;;;19.50;99.90;;;;;;5033388;28;20882;-71
2021/08/08 08:13:30;;;;;;;1.30;1.20;;;19.70;99.90;;;;;;5033135;28;20485;-71
2021/08/08 08:15:57;;;;;;;1.10;1.10;;;20.20;99.90;;;;;;5032696;28;20554;-71
2021/08/08 08:18:25;;;;;;;1.23;1.20;;;21.70;99.90;;;;;;5033208;28;20492;-71
2021/08/08 08:20:52;;;;;;;0.97;0.90;;;23.70;99.90;;;;;;5033047;28;20488;-71
2021/08/08 08:23:21;;;;;;;2.33;1.10;;;25.50;96.70;;;;;;5033244;28;20524;-71
2021/08/08 08:25:48;;;;;;;1.27;1.17;;;26.70;91.60;;;;;;5032947;28;20470;-71
2021/08/08 08:28:15;;;;;;;1.10;1.10;;;27.10;88.50;;;;;;5034673;28;20477;-70
2021/08/08 08:30:42;;;;;;;2.20;0.97;;;27.10;83.70;;;;;;5037029;28;20445;-70
2021/08/08 08:33:09;;;;;;;1.30;1.20;;;27.20;80.50;;;;;;5036866;28;20486;-70
2021/08/08 08:35:37;;;;;;;1.20;1.20;;;27.50;77.20;;;;;;5036685;28;20891;-71
2021/08/08 08:38:04;;;;;;;1.07;1.07;;;27.10;78.60;;;;;;5036670;28;20477;-70
2021/08/08 08:40:34;;;;;;;1.10;1.10;;;26.30;80.60;;;;;;5036864;28;20549;-70
2021/08/08 08:43:03;;;;;;;1.80;1.20;;;25.70;81.60;;;;;;5036737;28;20801;-70
2021/08/08 08:45:31;;;;;;;1.10;1.10;;;24.90;84.40;;;;;;5036370;28;20456;-70
2021/08/08 08:47:58;;;;;;;1.27;1.23;;;24.80;90.10;;;;;;5036520;28;20438;-71
2021/08/08 08:50:26;;;;;;;1.17;1.07;;;24.90;90.10;;;;;;5036682;28;20449;-71
2021/08/08 08:52:55;;;;;;;1.37;1.10;;;24.70;87.10;;;;;;5036469;28;20481;-70
2021/08/08 08:55:22;;;;;;;1.10;1.07;;;24.30;89.30;;;;;;5036247;28;20449;-70
2021/08/08 08:57:49;;;;;;;1.37;1.27;;;24.10;89.20;;;;;;5036420;28;20445;-70
2021/08/08 09:00:17;;;;;;;1.40;1.30;;;23.80;88.90;;;;;;5036484;28;20456;-70
2021/08/08 09:02:44;;;;;;;1.53;1.43;;;23.20;91.80;;;;;;5036360;28;20438;-70
2021/08/08 09:05:13;;;;;;;1.13;1.10;;;22.80;93.70;;;;;;5036013;28;20486;-71
2021/08/08 09:07:40;;;;;;;1.50;1.40;;;22.40;92.80;;;;;;5036253;28;20444;-71
2021/08/08 09:10:12;;;;;;;1.50;1.40;;;22.00;94.20;;;;;;5036229;28;20553;-70
2021/08/08 09:12:40;;;;;;;1.40;1.20;;;21.80;95.20;;;;;;5036196;28;20560;-70
2021/08/08 09:15:09;;;;;;;1.03;0.93;;;21.80;95.10;;;;;;5035808;28;20448;-70
2021/08/08 09:17:37;;;;;;;1.00;1.00;;;22.00;95.50;;;;;;5035962;28;20494;-71
2021/08/08 09:20:06;;;;;;;1.27;1.17;;;23.40;93.90;;;;;;5036057;28;20478;-70
2021/08/08 09:22:33;;;;;;;1.37;1.27;;;24.40;92.50;;;;;;5035953;28;20438;-71
2021/08/08 09:25:00;;;;;;;1.20;1.10;;;25.50;89.40;;;;;;5035801;28;20448;-71
2021/08/08 09:27:35;;;;;;;1.67;1.30;;;26.80;78.00;;;;;;5035943;28;20444;-71
2021/08/08 09:30:04;;;;;;;1.20;1.10;;;28.00;75.20;;;;;;5035930;28;20524;-71
2021/08/08 09:32:33;;;;;;;1.20;1.07;;;28.60;69.70;;;;;;5035825;28;20479;-71
2021/08/08 09:35:08;;;;;;;1.00;1.00;;;29.10;67.40;;;;;;5035561;28;20443;-71
2021/08/08 09:37:35;;;;;;;1.00;1.00;;;29.30;66.40;;;;;;5035561;28;20529;-71
2021/08/08 09:40:03;;;;;;;1.00;1.00;;;29.50;62.50;;;;;;5035327;28;20848;-71
2021/08/08 09:42:32;;;;;;;1.00;1.00;;;29.40;62.30;;;;;;5035550;28;20538;-71
2021/08/08 09:45:01;;;;;;;1.00;1.00;;;29.00;64.00;;;;;;5035438;28;20451;-70
2021/08/08 09:47:38;;;;;;;1.80;1.23;;;28.70;65.90;;;;;;5035476;28;20925;-70
2021/08/08 09:50:06;;;;;;;1.60;1.50;;;28.30;70.10;;;;;;5035575;28;20473;-71
2021/08/08 09:52:34;;;;;;;1.03;1.03;;;28.10;73.60;;;;;;5035511;28;20479;-71
2021/08/08 09:55:01;;;;;;;1.07;1.07;;;27.70;76.40;;;;;;5035119;28;20447;-71
2021/08/08 09:57:39;;;;;;;1.10;1.00;;;27.20;72.60;;;;;;5035290;28;20933;-70
2021/08/08 10:00:08;;;;;;;1.23;1.17;;;27.00;70.20;;;;;;5035397;28;20466;-71
2021/08/08 10:02:34;;;;;;;1.30;1.20;;;26.90;69.40;;;;;;5035282;28;20526;-70
2021/08/08 10:05:01;;;;;;;1.13;1.10;;;26.80;71.20;;;;;;5035054;28;20828;-71
2021/08/08 10:07:30;;;;;;;1.10;1.10;;;26.90;71.50;;;;;;5035055;28;20560;-71
2021/08/08 10:09:58;;;;;;;1.10;1.10;;;26.70;69.30;;;;;;5035215;28;20467;-70
2021/08/08 10:12:42;;;;;;;1.40;1.30;;;26.10;69.60;;;;;;5034969;28;20482;-70
2021/08/08 10:15:11;;;;;;;1.90;1.80;;;25.20;71.90;;;;;;5034897;28;20453;-70
2021/08/08 10:17:39;;;;;;;1.40;1.30;;;24.60;76.00;;;;;;5034784;28;20457;-71
2021/08/08 10:20:08;;;;;;;1.40;1.30;;;24.50;80.60;;;;;;5034919;28;20474;-70
2021/08/08 10:22:38;;;;;;;1.17;1.10;;;24.40;78.40;;;;;;5034847;28;20452;-71
2021/08/08 10:25:06;;;;;;;1.50;1.40;;;24.70;78.10;;;;;;5034723;28;20443;-71
2021/08/08 10:27:33;;;;;;;1.50;1.40;;;25.40;75.60;;;;;;5034812;28;20486;-71
2021/08/08 10:30:02;;;;;;;1.63;1.00;;;25.60;72.50;;;;;;5034727;28;20466;-70
2021/08/08 10:32:31;;;;;;;1.83;1.33;;;25.80;73.00;;;;;;5034526;28;20478;-70
2021/08/08 10:35:08;;;;;;;1.23;1.13;;;25.40;72.20;;;;;;5034280;28;20451;-71
2021/08/08 10:37:35;;;;;;;1.40;1.30;;;25.00;73.70;;;;;;5034569;28;20816;-71
2021/08/08 10:40:02;;;;;;;0.90;0.83;;;25.10;72.60;;;;;;5034616;28;20467;-71
2021/08/08 10:42:40;;;;;;;1.30;1.20;;;25.60;73.70;;;;;;5034535;28;20443;-71
2021/08/08 10:45:08;;;;;;;1.13;1.13;;;26.30;65.50;;;;;;5034341;28;20451;-70
2021/08/08 10:47:36;;;;;;;1.10;1.10;;;26.70;64.60;;;;;;5034318;28;20447;-71
2021/08/08 10:50:09;;;;;;;0.97;0.97;;;27.00;63.80;;;;;;5033729;28;20470;-71
2021/08/08 10:52:40;;;;;;;1.40;1.30;;;26.50;70.40;;;;;;5034017;28;20986;-71
2021/08/08 10:55:08;;;;;;;1.10;0.97;;;26.00;71.00;;;;;;5033840;28;20941;-70
2021/08/08 10:57:43;;;;;;;1.17;1.07;;;25.50;71.80;;;;;;5034226;28;20530;-71
2021/08/08 11:00:14;;;;;;;0.80;0.80;;;25.00;75.60;;;;;;5035044;28;20438;-71
2021/08/08 11:02:44;;;;;;;1.30;1.30;;;24.70;74.20;;;;;;5034151;28;20457;-71
2021/08/08 11:05:16;;;;;;;1.10;1.10;;;24.50;72.10;;;;;;5034651;28;20509;-71
2021/08/08 11:07:45;;;;;;;1.13;1.13;;;24.90;72.40;;;;;;5034060;28;20804;-71
2021/08/08 11:10:13;;;;;;;1.00;1.00;;;25.00;69.50;;;;;;5034097;28;20453;-71
2021/08/08 11:12:41;;;;;;;1.30;1.30;;;25.30;70.40;;;;;;5033912;28;20479;-71
2021/08/08 11:15:10;;;;;;;1.43;1.33;;;25.60;66.40;;;;;;5033743;28;20949;-70
2021/08/08 11:17:37;;;;;;;1.00;1.00;;;25.90;68.20;;;;;;5033627;28;20818;-71
2021/08/08 11:20:06;;;;;;;1.20;1.10;;;26.00;70.60;;;;;;5033887;28;20571;-71
2021/08/08 11:22:33;;;;;;;1.30;1.20;;;26.10;68.10;;;;;;5033827;28;20442;-71
2021/08/08 11:25:03;;;;;;;1.83;1.10;;;26.00;67.10;;;;;;5033555;28;20439;-70
2021/08/08 11:27:33;;;;;;;1.40;1.30;;;25.70;69.30;;;;;;5033741;28;20445;-71
2021/08/08 11:29:59;;;;;;;1.33;1.23;;;25.40;73.70;;;;;;5033466;28;20471;-70
2021/08/08 11:32:31;;;;;;;1.30;1.20;;;25.20;68.60;;;;;;5033658;28;20445;-70
2021/08/08 11:35:02;;;;;;;1.23;1.23;;;25.00;75.90;;;;;;5033355;28;20449;-70
2021/08/08 11:37:35;;;;;;;1.33;1.23;;;24.70;69.20;;;;;;5033606;28;20453;-70
2021/08/08 11:40:03;;;;;;;1.17;1.07;;;24.40;70.00;;;;;;5033274;28;20557;-70
2021/08/08 11:42:31;;;;;;;1.27;1.27;;;24.20;71.70;;;;;;5033589;28;20451;-70
2021/08/08 11:45:00;;;;;;;1.27;1.00;;;23.90;75.60;;;;;;5033371;28;20451;-71
2021/08/08 11:47:28;;;;;;;0.90;0.90;;;23.60;76.60;;;;;;5033519;28;20453;-70
2021/08/08 11:49:55;;;;;;;1.00;1.00;;;23.40;78.70;;;;;;5033564;28;20467;-70
2021/08/08 11:52:23;;;;;;;1.27;1.17;;;23.40;82.10;;;;;;5033317;28;20450;-70
2021/08/08 11:55:00;;;;;;;1.43;1.03;;;23.30;80.60;;;;;;5033079;28;20472;-70
2021/08/08 11:57:29;;;;;;;1.40;1.30;;;23.10;78.10;;;;;;5033526;28;20444;-70
2021/08/08 11:59:56;;;;;;;1.33;1.27;;;23.00;77.50;;;;;;5033457;28;20554;-71
2021/08/08 12:02:27;;;;;;;1.60;1.50;;;23.00;77.00;;;;;;5035423;28;20446;-70
2021/08/08 12:04:54;;;;;;;1.40;1.20;;;23.10;77.20;;;;;;5037326;28;20479;-70
2021/08/08 12:07:23;;;;;;;1.27;1.17;;;23.10;76.60;;;;;;5037222;28;20525;-70
2021/08/08 12:09:53;;;;;;;2.10;1.40;;;23.00;76.70;;;;;;5037425;28;20468;-70
2021/08/08 12:12:19;;;;;;;1.43;1.33;;;22.90;75.60;;;;;;5037356;28;20449;-70
2021/08/08 12:14:47;;;;;;;1.83;1.60;;;22.60;80.10;;;;;;5037051;28;20500;-70
2021/08/08 12:17:16;;;;;;;2.03;1.20;;;21.90;83.40;;;;;;5036960;28;20546;-70
2021/08/08 12:19:47;;;;;;;1.33;1.30;;;21.40;85.10;;;;;;5036908;28;20476;-70
2021/08/08 12:22:17;;;;;;;1.13;1.03;;;21.30;87.40;;;;;;5037223;28;20455;-70
2021/08/08 12:24:46;;;;;;;1.03;1.03;;;21.30;82.20;;;;;;5036989;28;20770;-70
2021/08/08 12:27:18;;;;;;;1.97;0.70;;;21.50;81.00;;;;;;5037058;28;20447;-71
2021/08/08 12:29:46;;;;;;;1.17;0.70;;;21.80;75.80;;;;;;5036959;28;20462;-70
2021/08/08 12:32:17;;;;;;;1.23;1.00;;;21.70;71.60;;;;;;5036663;28;20999;-70
2021/08/08 12:34:45;;;;;;;1.10;0.90;;;21.70;74.40;;;;;;5036858;28;20889;-71
2021/08/08 12:37:13;;;;;;;0.90;0.90;;;21.70;75.70;;;;;;5036588;28;20449;-70
2021/08/08 12:39:41;;;;;;;0.70;0.70;;;21.70;72.80;;;;;;5036605;28;20968;-70
2021/08/08 12:42:21;;;;;;;0.80;0.80;;;21.70;74.80;;;;;;5036857;28;20445;-70
2021/08/08 12:44:49;;;;;;;1.00;0.97;;;21.90;74.10;;;;;;5036577;28;20852;-70
2021/08/08 12:47:26;;;;;;;1.07;1.00;;;21.90;73.20;;;;;;5036665;28;20438;-70
2021/08/08 12:49:53;;;;;;;1.03;1.03;;;21.70;75.80;;;;;;5036659;28;20561;-70
2021/08/08 12:52:20;;;;;;;1.47;1.00;;;21.90;75.50;;;;;;5036590;28;20465;-70